Tiempo atmosférico en la estación meteorológica de Espolla, Girona (94 m.)



Fecha
DESCASC
Temp. máxima en grados centígrados (hora)
DESCASC
Temp. mínima en grados centígrados (hora)
DESCASC
Temp. media en grados centígrados
DESCASC
Racha de viento máxima en m/sg (hora)
DESCASC
Velocidad máxima media en intervalos de 10 minutos(hora)
DESCASC
Precipitaciones diarias en mm
DESCASC
Precipitaciones de 00:00 a 06:00 en mm
DESCASC
Precipitaciones de 06:00 a 12:00 en mm
DESCASC
Precipitaciones de 12:00 a 18:00 en mm
DESCASC
Precipitaciones de 18:00 a 24:00 en mm
DESCASC
24-09-2020 25.3 (14:10) 15.8 (07:40) 20.5 7.22 (15:40) 4.17 (16:40) 0 0 0 0 0
23-09-2020 25.9 (16:30) 14.8 (00:00) 20.3 5.56 (15:20) 3.61 (23:30) 0.2 0.2 0 0 0
22-09-2020 24.7 (15:10) 15.8 (00:00) 20.3 7.22 (17:00) 4.17 (17:00) 27.2 0 0 10.8 16.4
21-09-2020 24.7 (14:00) 16.4 (00:00) 20.6 8.06 (15:00) 4.44 (15:00) 23.4 0.6 0 21.6 1.2
20-09-2020 26.7 (13:10) 16.5 (00:00) 21.6 6.11 (00:40) 3.61 (00:10) 0 0 0 0 0
19-09-2020 27.9 (13:50) 18.4 (00:00) 23.1 14.72 (17:20) 8.33 (17:20) 9.8 0 0 9.8 0
18-09-2020 27.6 (12:10) 18.4 (00:00) 23 8.61 (13:10) 5 (13:20) 0.4 0 0 0.4 0
17-09-2020 30.8 (14:30) 18.5 (00:00) 24.6 7.22 (16:20) 4.72 (16:00) 0 0 0 0 0
16-09-2020 30 (13:50) 17.8 (00:00) 23.9 6.67 (15:20) 3.89 (15:10) 0 0 0 0 0
15-09-2020 29.8 (14:50) 16.7 (00:00) 23.3 7.5 (16:50) 3.89 (16:50) 0 0 0 0 0
14-09-2020 30.4 (15:00) 17 (00:00) 23.7 8.06 (15:40) 5.28 (15:50) 0 0 0 0 0
13-09-2020 32.3 (16:10) 18.3 (00:00) 25.3 9.44 (02:00) 5 (02:00) 0 0 0 0 0
12-09-2020 32.6 (16:10) 19 (00:00) 25.8 7.5 (13:10) 5 (13:10) 0 0 0 0 0
11-09-2020 30.8 (14:50) 20.2 (00:00) 25.5 11.94 (03:50) 7.22 (03:50) 0 0 0 0 0
10-09-2020 26.3 (11:00) 16.8 (00:00) 21.5 10.56 (11:10) 4.44 (19:00) 0 0 0 0 0
09-09-2020 25.8 (17:10) 17.3 (00:00) 21.5 8.33 (14:20) 4.72 (03:00) 24.4 4.6 19.6 0.2 0
08-09-2020 26.8 (13:30) 17.8 (00:00) 22.3 18.33 (01:20) 10.28 (01:00) 2.6 0 0 2.4 0.2
07-09-2020 24.3 (15:30) 19.1 (06:20) 21.7 22.78 (07:20) 11.94 (08:20) 0 0 0 0 0
06-09-2020 26.1 (00:50) 17.2 (00:00) 21.7 16.39 (23:40) 7.78 (21:40) 12.8 0 0 0 12.8
05-09-2020 28.8 (16:30) 19 (00:00) 23.9 8.61 (14:00) 3.61 (14:10) 0 0 0 0 0
04-09-2020 29.8 (15:00) 15.3 (00:00) 22.5 7.22 (15:00) 4.44 (14:20) 0 0 0 0 0
03-09-2020 29.9 (14:50) 13.8 (00:00) 21.8 10.28 (00:30) 5.28 (00:30) 0 0 0 0 0
02-09-2020 28.8 (16:30) 17.4 (00:00) 23.1 14.17 (01:30) 7.78 (02:30) 0 0 0 0 0
01-09-2020 26.4 (15:10) 15.4 (00:00) 20.9 8.61 (00:30) 4.44 (13:30) 0 0 0 0 0
31-08-2020 27 (16:50) 17.6 (00:00) 22.3 17.5 (04:00) 9.17 (04:00) 0 0 0 0 0
30-08-2020 25.5 (15:40) 14.7 (00:00) 20.1 18.33 (00:50) 10.28 (00:50) 2 2 0 0 0
29-08-2020 24.2 (16:20) 14.5 (00:00) 19.4 19.17 (23:59) 9.72 (22:50) 10.2 4 6 0.2 0
28-08-2020 30.8 (12:40) 17.3 (00:00) 24 11.11 (19:30) 5 (14:00) 1.2 0 0 0.2 1

Gráficas

Temp. máximas Temp. mínimas Temp. medias Precipitaciones Rachas de viento máximas Velocidades máximas media en intervalos de 10 minutos

Datos horarios

Fecha y hora oficial Temperatura (ºC) Velocidad del viento (km/h) Dirección del viento Racha (km/h) Dirección de racha Precipitación (mm) Presión (hPa) Tendencia (hPa) Humedad (%)
2020-09-26 23:00:00 12.4 9 Nordeste 21 Nordeste 1 -- -- 92
2020-09-26 22:00:00 13.1 13 Nordeste 24 Nordeste 3.2 -- -- 92
2020-09-26 21:00:00 13.2 14 Nordeste 21 Nordeste 1.6 -- -- 91
2020-09-26 20:00:00 14.2 10 Nordeste 14 Nordeste 0.2 -- -- 83
2020-09-26 19:00:00 16 6 Sudeste 20 Sudeste 0 -- -- 68
2020-09-26 18:00:00 17.4 3 Sudoeste 12 Noroeste 0 -- -- 59
2020-09-26 17:00:00 18.5 6 Noroeste 20 Noroeste 0 -- -- 53
2020-09-26 16:00:00 19.4 13 Noroeste 30 Norte 0 -- -- 50
2020-09-26 15:00:00 18.3 19 Norte 45 Noroeste 0 -- -- 51
2020-09-26 14:00:00 17.5 20 Norte 48 Norte 0 -- -- 53
2020-09-26 13:00:00 15.7 23 Norte 41 Nordeste 0 -- -- 53
2020-09-26 12:00:00 15.4 20 Norte 52 Norte 0 -- -- 51
2020-09-26 11:00:00 14.7 15 Norte 42 Norte 0 -- -- 53
2020-09-26 10:00:00 13.7 19 Norte 46 Nordeste 0 -- -- 61
2020-09-26 09:00:00 12.5 19 Norte 40 Norte 0 -- -- 69
2020-09-26 08:00:00 12.8 17 Norte 47 Norte 0 -- -- 62
2020-09-26 07:00:00 12.9 16 Norte 46 Norte 0 -- -- 59
2020-09-26 06:00:00 12.9 13 Norte 41 Noroeste 0 -- -- 58
2020-09-26 05:00:00 13.1 21 Norte 66 Norte 0 -- -- 57
2020-09-26 04:00:00 13.3 27 Norte 77 Norte 0 -- -- 53
2020-09-26 03:00:00 12.1 45 Norte 77 Norte 0.6 -- -- 62
2020-09-26 02:00:00 13.3 29 Norte 68 Noroeste 0 -- -- 57
2020-09-26 01:00:00 13.7 30 Noroeste 86 Noroeste 0 -- -- 56
2020-09-26 00:00:00 13.9 31 Noroeste 58 Noroeste 0 -- -- 54
2020-09-25 23:00:00 14.5 20 Norte 69 Noroeste 0 -- -- 48
2020-09-25 22:00:00 14.5 39 Noroeste 76 Noroeste 0 -- -- 50
2020-09-25 21:00:00 14.5 31 Noroeste 64 Noroeste 0 -- -- 47
2020-09-25 20:00:00 14.4 35 Noroeste 60 Noroeste 0 -- -- 48
2020-09-25 19:00:00 14.4 44 Noroeste 86 Noroeste 0 -- -- 48
2020-09-25 18:00:00 16.7 39 Noroeste 90 Noroeste 0 -- -- 43
2020-09-25 17:00:00 17.6 43 Noroeste 90 Noroeste 0 -- -- 41
2020-09-25 16:00:00 18.9 42 Noroeste 80 Noroeste 0 -- -- 35
2020-09-25 15:00:00 17.8 46 Noroeste 84 Noroeste 0 -- -- 40
2020-09-25 14:00:00 19 34 Noroeste 58 Norte 0 -- -- 37
2020-09-25 13:00:00 19.7 31 Norte 62 Noroeste 0 -- -- 36
2020-09-25 12:00:00 19.2 20 Noroeste 57 Noroeste 0 -- -- 37
2020-09-25 11:00:00 17.9 20 Noroeste 47 Noroeste 0 -- -- 45
2020-09-25 10:00:00 15.2 13 Oeste 46 Norte 0.2 -- -- 54
2020-09-25 09:00:00 14.8 24 Noroeste 51 Noroeste 0 -- -- 50
2020-09-25 08:00:00 12.7 19 Norte 47 Norte 4.8 -- -- 66
2020-09-25 07:00:00 13.1 30 Norte 69 Norte 1 -- -- 69
2020-09-25 06:00:00 15.4 33 Norte 78 Norte 0 -- -- 54
2020-09-25 05:00:00 14.9 36 Norte 66 Norte 0 -- -- 62
2020-09-25 04:00:00 17.3 21 Norte 41 Norte 0 -- -- 61
2020-09-25 03:00:00 17.7 19 Norte 50 Norte 0 -- -- 64
2020-09-25 02:00:00 17.3 7 Nordeste 24 Norte 0 -- -- 83
2020-09-25 01:00:00 16.9 3 Nordeste 8 Norte 0 -- -- 87
2020-09-25 00:00:00 16.7 4 Nordeste 5 Noroeste 0 -- -- 86
2020-09-24 23:00:00 18.7 0 Calma 15 Este 0 -- -- 80
2020-09-24 22:00:00 18.7 7 Norte 16 Noroeste 0 -- -- 82
2020-09-24 21:00:00 18.7 6 Norte 12 Norte 0 -- -- 87
2020-09-24 20:00:00 20.1 7 Nordeste 18 Nordeste 0 -- -- 82
2020-09-24 19:00:00 21.3 10 Nordeste 14 Nordeste 0 -- -- 79
2020-09-24 18:00:00 21.2 9 Nordeste 20 Nordeste 0 -- -- 80
2020-09-24 17:00:00 21.8 9 Nordeste 22 Nordeste 0 -- -- 79
2020-09-24 16:00:00 22.9 9 Nordeste 26 Nordeste 0 -- -- 75
2020-09-24 15:00:00 24.1 14 Sur 24 Sur 0 -- -- 72
2020-09-24 14:00:00 25 11 Sudeste 24 Sur 0 -- -- 62
2020-09-24 13:00:00 24.3 10 Sur 22 Sudoeste 0 -- -- 62
2020-09-24 12:00:00 24.1 9 Sudoeste 18 Sudoeste 0 -- -- 64
2020-09-24 11:00:00 22.6 4 Sur 7 Sur 0 -- -- 67
2020-09-24 10:00:00 21.3 4 Sur 8 Nordeste 0 -- -- 74
2020-09-24 09:00:00 18.5 0 Calma 13 Este 0 -- -- 85
2020-09-24 08:00:00 15.9 4 Nordeste 13 Nordeste 0 -- -- 91
2020-09-24 07:00:00 16.1 4 Nordeste 10 Nordeste 0 -- -- 90
2020-09-24 06:00:00 16.3 0 Calma 12 Nordeste 0 -- -- 91
2020-09-24 05:00:00 16.5 4 Nordeste 8 Nordeste 0 -- -- 90
2020-09-24 04:00:00 17 3 Norte 8 Norte 0 -- -- 89
2020-09-24 03:00:00 17.9 4 Norte 8 Norte 0 -- -- 87
2020-09-24 02:00:00 19.4 4 Noroeste 11 Norte 0 -- -- 81
2020-09-24 01:00:00 19.4 3 Oeste 13 Este 0 -- -- 85
2020-09-24 00:00:00 19.6 12 Nordeste 20 Nordeste 0 -- -- 87
2020-09-23 23:00:00 19.4 6 Nordeste 14 Nordeste 0 -- -- 88
2020-09-23 22:00:00 19.7 4 Norte 14 Nordeste 0 -- -- 87
2020-09-23 21:00:00 20.7 6 Norte 12 Nordeste 0 -- -- 87
2020-09-23 20:00:00 22.3 4 Nordeste 8 Noroeste 0 -- -- 83
2020-09-23 19:00:00 24.7 5 Oeste 10 Sudoeste 0 -- -- 73
2020-09-23 18:00:00 25.3 6 Sudoeste 15 Sur 0 -- -- 72
2020-09-23 17:00:00 25.8 7 Sudoeste 15 Sur 0 -- -- 70
2020-09-23 16:00:00 25.6 7 Sudoeste 20 Sur 0 -- -- 66
2020-09-23 15:00:00 25.3 9 Sudoeste 19 Sur 0 -- -- 65
2020-09-23 14:00:00 24.4 9 Sur 18 Sur 0 -- -- 64
2020-09-23 13:00:00 24 9 Sur 15 Sudoeste 0 -- -- 64
2020-09-23 12:00:00 23.2 5 Sur 13 Sur 0 -- -- 66
2020-09-23 11:00:00 22 3 Sur 10 Sur 0 -- -- 69
2020-09-23 10:00:00 20 0 Calma 3 Este 0 -- -- 82
2020-09-23 09:00:00 16.9 0 Calma 17 Nordeste 0 -- -- 92
2020-09-23 08:00:00 15 8 Nordeste 12 Nordeste 0 -- -- 94
2020-09-23 07:00:00 15.2 8 Nordeste 15 Nordeste 0 -- -- 92
2020-09-23 06:00:00 15.2 2 Noroeste 18 Nordeste 0 -- -- 93
2020-09-23 05:00:00 15.5 9 Nordeste 17 Nordeste 0 -- -- 93
2020-09-23 04:00:00 16 4 Norte 8 Norte 0.2 -- -- 93
2020-09-23 03:00:00 16.9 4 Norte 15 Nordeste 0 -- -- 93
2020-09-23 02:00:00 16.9 0 Calma 9 Nordeste 0 -- -- 94
2020-09-23 01:00:00 17 2 Nordeste 14 Nordeste 0 -- -- 94
2020-09-23 00:00:00 17 9 Nordeste 13 Nordeste 0 -- -- 94
2020-09-22 23:00:00 17 9 Nordeste 18 Nordeste 5.4 -- -- 94
2020-09-22 22:00:00 17.1 8 Nordeste 12 Nordeste 6.8 -- -- 93
2020-09-22 21:00:00 17.6 5 Norte 9 Nordeste 0.4 -- -- 94
2020-09-22 20:00:00 18.1 3 Nordeste 11 Nordeste 0.2 -- -- 93
2020-09-22 19:00:00 18.3 7 Nordeste 18 Nordeste 3.6 -- -- 92
2020-09-22 18:00:00 18.8 5 Este 23 Sudeste 10.8 -- -- 88
2020-09-22 17:00:00 21.5 15 Sudeste 26 Sur 0 -- -- 69
2020-09-22 16:00:00 22.9 14 Sur 24 Sur 0 -- -- 64
2020-09-22 15:00:00 24 5 Sudoeste 18 Sur 0 -- -- 68
2020-09-22 14:00:00 23.8 10 Sur 21 Sudoeste 0 -- -- 65
2020-09-22 13:00:00 23.4 5 Sudoeste 14 Oeste 0 -- -- 66
2020-09-22 12:00:00 21.7 6 Sudoeste 10 Sudoeste 0 -- -- 75
2020-09-22 11:00:00 21.7 0 Calma -- -- 0 -- -- 72
2020-09-22 10:00:00 19.4 0 Calma -- -- 0 -- -- 87
2020-09-22 09:00:00 16.9 0 Calma 10 Norte 0 -- -- 93
2020-09-22 08:00:00 15.8 7 Norte 14 Nordeste 0 -- -- 93
2020-09-22 07:00:00 16.1 8 Nordeste 14 Nordeste 0 -- -- 94
2020-09-22 06:00:00 16.2 0 Calma 5 Nordeste 0 -- -- 94
2020-09-22 05:00:00 16.8 0 Calma 9 Norte 0 -- -- 93
2020-09-22 04:00:00 17 2 Norte 13 Nordeste 0 -- -- 93
2020-09-22 03:00:00 16.9 0 Calma 10 Nordeste 0 -- -- 94
2020-09-22 02:00:00 16.9 0 Calma 9 Nordeste 0 -- -- 95
2020-09-22 01:00:00 16.8 0 Calma 12 Nordeste 0 -- -- 94
2020-09-22 00:00:00 16.7 4 Norte 13 Nordeste 0 -- -- 94
2020-09-21 23:00:00 16.6 5 Norte 12 Norte 0 -- -- 94
2020-09-21 22:00:00 16.5 8 Nordeste 14 Nordeste 0 -- -- 94
2020-09-21 21:00:00 17 2 Noroeste 9 Nordeste 0 -- -- 94
2020-09-21 20:00:00 17.8 0 Calma -- -- 0.4 -- -- 95
2020-09-21 19:00:00 18 2 Nordeste 10 Este 0.8 -- -- 94
2020-09-21 18:00:00 18 4 Nordeste 15 Noroeste 1.8 -- -- 93
2020-09-21 17:00:00 18.2 4 Oeste 12 Noroeste 0.6 -- -- 93
2020-09-21 16:00:00 17.9 6 Norte 19 Sudoeste 15.8 -- -- 92
2020-09-21 15:00:00 20.5 16 Oeste 29 Sudoeste 3.4 -- -- 83
2020-09-21 14:00:00 24.7 8 Sur 17 Sur 0 -- -- 60
2020-09-21 13:00:00 23.6 7 Sur 14 Sur 0 -- -- 67
2020-09-21 12:00:00 22.6 7 Sur 11 Sur 0 -- -- 71
2020-09-21 11:00:00 21.7 5 Sudeste 8 Sudeste 0 -- -- 71
2020-09-21 10:00:00 19.2 0 Calma 9 Nordeste 0 -- -- 87
2020-09-21 09:00:00 18.1 6 Nordeste 11 Nordeste 0 -- -- 86
2020-09-21 08:00:00 16.4 2 Norte 12 Nordeste 0 -- -- 90
2020-09-21 07:00:00 17 3 Nordeste 16 Nordeste 0 -- -- 90
2020-09-21 06:00:00 17.1 3 Nordeste 9 Norte 0 -- -- 91
2020-09-21 05:00:00 17.5 3 Norte 8 Norte 0 -- -- 92
2020-09-21 04:00:00 18 3 Norte 13 Nordeste 0 -- -- 92
2020-09-21 03:00:00 18.2 2 Norte 10 Nordeste 0 -- -- 93
2020-09-21 02:00:00 18.3 4 Nordeste 8 Este 0.6 -- -- 91
2020-09-21 01:00:00 18.9 0 Calma 6 Nordeste 0 -- -- 87
2020-09-21 00:00:00 19.1 0 Calma 7 Nordeste 0 -- -- 83
2020-09-20 23:00:00 19.1 0 Calma 14 Nordeste 0 -- -- 81
2020-09-20 22:00:00 19.3 10 Nordeste 14 Nordeste 0 -- -- 79
2020-09-20 21:00:00 19.8 4 Nordeste 6 Norte 0 -- -- 79
2020-09-20 20:00:00 21.3 0 Calma 4 Sudeste 0 -- -- 76
2020-09-20 19:00:00 23 0 Calma 7 Sur 0 -- -- 64
2020-09-20 18:00:00 23.4 3 Sur 15 Sur 0 -- -- 62
2020-09-20 17:00:00 23.5 10 Sur 17 Sur 0 -- -- 66
2020-09-20 16:00:00 23.6 9 Nordeste 19 Norte 0 -- -- 61
2020-09-20 15:00:00 23.6 13 Nordeste 21 Este 0 -- -- 61
2020-09-20 14:00:00 25.2 8 Este 18 Sudeste 0 -- -- 57
2020-09-20 13:00:00 26.6 4 Oeste 17 Sur 0 -- -- 53
2020-09-20 12:00:00 25.4 5 Sudeste 12 Sur 0 -- -- 53
2020-09-20 11:00:00 23.6 6 Sur 10 Oeste 0 -- -- 63
2020-09-20 10:00:00 22.2 3 Sudeste 5 Este 0 -- -- 69
2020-09-20 09:00:00 19.1 3 Este 9 Nordeste 0 -- -- 80
2020-09-20 08:00:00 16.5 3 Nordeste 13 Noroeste 0 -- -- 87
2020-09-20 07:00:00 17.2 5 Norte 10 Este 0 -- -- 83
2020-09-20 06:00:00 18.1 5 Este 12 Nordeste 0 -- -- 80
2020-09-20 05:00:00 18.3 3 Sudeste 9 Norte 0 -- -- 82
2020-09-20 04:00:00 18.3 0 Calma 11 Oeste 0 -- -- 89
2020-09-20 03:00:00 18.5 4 Oeste 12 Nordeste 0 -- -- 91
2020-09-20 02:00:00 18.4 5 Norte 14 Nordeste 0 -- -- 91
2020-09-20 01:00:00 19.2 9 Nordeste 22 Nordeste 0 -- -- 88
2020-09-20 00:00:00 18.5 15 Nordeste 21 Nordeste 0 -- -- 91
2020-09-19 23:00:00 18.9 6 Nordeste 12 Nordeste 0 -- -- 92
2020-09-19 22:00:00 19.6 4 Nordeste 13 Nordeste 0 -- -- 92
2020-09-19 21:00:00 20.6 3 Nordeste 12 Oeste 0 -- -- 91
2020-09-19 20:00:00 21.9 5 Oeste 15 Oeste 0 -- -- 88
2020-09-19 19:00:00 23.2 5 Nordeste 17 Nordeste 0 -- -- 82
2020-09-19 18:00:00 22.6 9 Este 53 Noroeste 9.8 -- -- 82
2020-09-19 17:00:00 24.5 7 Este 24 Este 0 -- -- 68
2020-09-19 16:00:00 26.3 23 Sudeste 35 Sudeste 0 -- -- 64
2020-09-19 15:00:00 26.6 20 Sudeste 40 Sur 0 -- -- 66
2020-09-19 14:00:00 27.8 23 Sudeste 37 Sur 0 -- -- 65
2020-09-19 13:00:00 27.3 16 Sudeste 29 Sur 0 -- -- 62
2020-09-19 12:00:00 25.8 14 Sur 22 Sur 0 -- -- 63
2020-09-19 11:00:00 23.7 8 Sur 17 Sur 0 -- -- 76
2020-09-19 10:00:00 22.8 2 Sudeste 9 Este 0 -- -- 79
2020-09-19 09:00:00 19.8 8 Nordeste 10 Nordeste 0 -- -- 89
2020-09-19 08:00:00 18.5 0 Calma 12 Nordeste 0 -- -- 90
2020-09-19 07:00:00 18.6 4 Nordeste 14 Nordeste 0 -- -- 90
2020-09-19 06:00:00 18.5 9 Nordeste 15 Nordeste 0 -- -- 92
2020-09-19 05:00:00 18.6 8 Nordeste 14 Nordeste 0 -- -- 91
2020-09-19 04:00:00 18.6 7 Nordeste 13 Nordeste 0 -- -- 91
2020-09-19 03:00:00 18.7 11 Nordeste 13 Nordeste 0 -- -- 92
2020-09-19 02:00:00 19 2 Nordeste 8 Nordeste 0 -- -- 89
2020-09-19 01:00:00 19.5 0 Calma 8 Norte 0 -- -- 89
2020-09-19 00:00:00 20.1 0 Calma 2 Norte 0 -- -- 87
2020-09-18 23:00:00 20 0 Calma 7 Nordeste 0 -- -- 84
2020-09-18 22:00:00 21.3 2 Norte 4 Este 0 -- -- 80
2020-09-18 21:00:00 21.3 0 Calma 7 Norte 0 -- -- 80
2020-09-18 20:00:00 22.7 0 Calma 9 Sur 0 -- -- 72
2020-09-18 19:00:00 23.9 6 Sur 15 Sur 0 -- -- 65
2020-09-18 18:00:00 24.3 7 Sudeste 13 Sudeste 0 -- -- 62
2020-09-18 17:00:00 22.8 3 Sur 6 Sudoeste 0 -- -- 73
2020-09-18 16:00:00 22.4 2 Oeste 30 Noroeste 0.4 -- -- 73
2020-09-18 15:00:00 25.2 12 Sudoeste 21 Sudoeste 0 -- -- 59
2020-09-18 14:00:00 25.8 11 Sudoeste 31 Sudoeste 0 -- -- 54
2020-09-18 13:00:00 26.7 13 Sudoeste 30 Sur 0 -- -- 47
2020-09-18 12:00:00 27.3 14 Sudoeste 23 Sur 0 -- -- 48
2020-09-18 11:00:00 24.5 11 Sur 19 Sur 0 -- -- 58
2020-09-18 10:00:00 23 5 Sur 10 Sur 0 -- -- 68
2020-09-18 09:00:00 21.3 6 Este 10 Nordeste 0 -- -- 75
2020-09-18 08:00:00 18.4 5 Norte 13 Nordeste 0 -- -- 83
2020-09-18 07:00:00 18.6 10 Nordeste 15 Nordeste 0 -- -- 82
2020-09-18 06:00:00 18.9 9 Nordeste 14 Nordeste 0 -- -- 83
2020-09-18 05:00:00 19 6 Nordeste 14 Este 0 -- -- 82
2020-09-18 04:00:00 19.2 5 Nordeste 15 Nordeste 0 -- -- 82
2020-09-18 03:00:00 19.4 12 Nordeste 15 Nordeste 0 -- -- 82
2020-09-18 02:00:00 19.8 4 Norte 10 Nordeste 0 -- -- 81
2020-09-18 01:00:00 20.3 0 Calma 9 Nordeste 0 -- -- 77
2020-09-18 00:00:00 20.7 2 Nordeste 7 Este 0 -- -- 72
2020-09-17 23:00:00 21.2 0 Calma 8 Norte 0 -- -- 69
2020-09-17 22:00:00 21.3 2 Nordeste 6 Nordeste 0 -- -- 68
2020-09-17 21:00:00 22.3 0 Calma 6 Nordeste 0 -- -- 63
2020-09-17 20:00:00 24.4 0 Calma 8 Sudoeste 0 -- -- 59
2020-09-17 19:00:00 25.6 3 Sudoeste 9 Sudoeste 0 -- -- 52
2020-09-17 18:00:00 26.3 4 Sudoeste 17 Sur 0 -- -- 50
2020-09-17 17:00:00 27.7 10 Sur 26 Sur 0 -- -- 44
2020-09-17 16:00:00 29 17 Sur 25 Sudeste 0 -- -- 43
2020-09-17 15:00:00 30.5 15 Sur 24 Sur 0 -- -- 39
2020-09-17 14:00:00 30.1 11 Sur 21 Sur 0 -- -- 42
2020-09-17 13:00:00 30.4 9 Sur 19 Sur 0 -- -- 42
2020-09-17 12:00:00 29.9 10 Sur 18 Sur 0 -- -- 42
2020-09-17 11:00:00 28 7 Sudoeste 10 Sudoeste 0 -- -- 47
2020-09-17 10:00:00 27 4 Este 10 Nordeste 0 -- -- 51
2020-09-17 09:00:00 22.4 9 Nordeste 12 Nordeste 0 -- -- 63
2020-09-17 08:00:00 19.5 6 Nordeste 14 Nordeste 0 -- -- 68
2020-09-17 07:00:00 18.8 4 Norte 10 Norte 0 -- -- 71
2020-09-17 06:00:00 20 4 Noroeste 14 Nordeste 0 -- -- 68
2020-09-17 05:00:00 19.1 3 Nordeste 12 Nordeste 0 -- -- 73
2020-09-17 04:00:00 19 5 Nordeste 11 Nordeste 0 -- -- 75
2020-09-17 03:00:00 20.1 3 Nordeste 13 Nordeste 0 -- -- 71
2020-09-17 02:00:00 20.2 6 Nordeste 11 Nordeste 0 -- -- 71
2020-09-17 01:00:00 20.6 3 Nordeste 12 Norte 0 -- -- 72
2020-09-17 00:00:00 21.1 6 Norte 13 Nordeste 0 -- -- 70
2020-09-16 23:00:00 21.2 5 Nordeste 14 Norte 0 -- -- 73
2020-09-16 22:00:00 22.4 7 Norte 15 Nordeste 0 -- -- 73
2020-09-16 21:00:00 23.2 9 Nordeste 15 Nordeste 0 -- -- 75
2020-09-16 20:00:00 25.3 0 Calma 8 Sur 0 -- -- 69
2020-09-16 19:00:00 27.2 4 Sur 11 Sur 0 -- -- 63
2020-09-16 18:00:00 28.5 6 Sur 13 Sudoeste 0 -- -- 58
2020-09-16 17:00:00 29.2 8 Sur 19 Sur 0 -- -- 55
2020-09-16 16:00:00 29.3 10 Sur 24 Sur 0 -- -- 56
2020-09-16 15:00:00 29.6 11 Sur 21 Sur 0 -- -- 58
2020-09-16 14:00:00 30 11 Sur 18 Sur 0 -- -- 57
2020-09-16 13:00:00 28.8 9 Sudoeste 19 Sudoeste 0 -- -- 59
2020-09-16 12:00:00 26.7 5 Sur 12 Sur 0 -- -- 65
2020-09-16 11:00:00 24.6 6 Sur 10 Sudoeste 0 -- -- 77
2020-09-16 10:00:00 22.1 3 Sudoeste 8 Sudoeste 0 -- -- 88
2020-09-16 09:00:00 20.1 5 Nordeste 11 Nordeste 0 -- -- 88
2020-09-16 08:00:00 18.2 4 Nordeste 9 Nordeste 0 -- -- 93
2020-09-16 07:00:00 18.1 4 Nordeste 9 Norte 0 -- -- 91
2020-09-16 06:00:00 18.6 3 Norte 11 Nordeste 0 -- -- 90
2020-09-16 05:00:00 19.3 2 Norte 15 Nordeste 0 -- -- 90
2020-09-16 04:00:00 19.2 5 Nordeste 13 Nordeste 0 -- -- 90
2020-09-16 03:00:00 19.4 3 Nordeste 13 Nordeste 0 -- -- 90
2020-09-16 02:00:00 19.9 8 Nordeste 13 Nordeste 0 -- -- 88
2020-09-16 01:00:00 20.5 5 Norte 12 Nordeste 0 -- -- 86
2020-09-16 00:00:00 21 5 Nordeste 12 Nordeste 0 -- -- 86
2020-09-15 23:00:00 21.7 3 Nordeste 9 Nordeste 0 -- -- 85
2020-09-15 22:00:00 22 5 Nordeste 10 Nordeste 0 -- -- 83
2020-09-15 21:00:00 22.9 5 Este 8 Sudeste 0 -- -- 84
2020-09-15 20:00:00 24.4 0 Calma 10 Sur 0 -- -- 77
2020-09-15 19:00:00 25.8 7 Sudoeste 16 Sur 0 -- -- 72
2020-09-15 18:00:00 27.8 9 Sudoeste 19 Sur 0 -- -- 64
2020-09-15 17:00:00 28.2 13 Sudoeste 27 Sur 0 -- -- 62
2020-09-15 16:00:00 27 12 Sur 22 Sur 0 -- -- 67
2020-09-15 15:00:00 29.6 11 Sudoeste 20 Sudoeste 0 -- -- 48
2020-09-15 14:00:00 29 11 Sur 21 Sur 0 -- -- 51
2020-09-15 13:00:00 28.6 6 Sudeste 19 Sur 0 -- -- 49
2020-09-15 12:00:00 27.4 6 Sur 16 Sur 0 -- -- 52
2020-09-15 11:00:00 25.7 5 Sudoeste 9 Sudoeste 0 -- -- 57
2020-09-15 10:00:00 23.5 2 Oeste 9 Nordeste 0 -- -- 64
2020-09-15 09:00:00 19.9 9 Nordeste 15 Nordeste 0 -- -- 75
2020-09-15 08:00:00 16.9 12 Nordeste 15 Nordeste 0 -- -- 85
2020-09-15 07:00:00 16.8 11 Nordeste 15 Nordeste 0 -- -- 87
2020-09-15 06:00:00 17.2 12 Nordeste 15 Nordeste 0 -- -- 87
2020-09-15 05:00:00 17.4 10 Nordeste 14 Nordeste 0 -- -- 88
2020-09-15 04:00:00 17.5 12 Nordeste 17 Nordeste 0 -- -- 90
2020-09-15 03:00:00 17.4 9 Nordeste 12 Nordeste 0 -- -- 89
2020-09-15 02:00:00 18 11 Nordeste 14 Nordeste 0 -- -- 86
2020-09-15 01:00:00 18.2 6 Nordeste 11 Nordeste 0 -- -- 85
2020-09-15 00:00:00 18.7 3 Nordeste 6 Nordeste 0 -- -- 83
2020-09-14 23:00:00 19.4 3 Nordeste 12 Nordeste 0 -- -- 79
2020-09-14 22:00:00 20 8 Nordeste 12 Nordeste 0 -- -- 74
2020-09-14 21:00:00 21.4 3 Nordeste 9 Norte 0 -- -- 70
2020-09-14 20:00:00 24.2 2 Noroeste 12 Sur 0 -- -- 64
2020-09-14 19:00:00 26.1 10 Sur 19 Sur 0 -- -- 55
2020-09-14 18:00:00 27.9 13 Sur 28 Sudoeste 0 -- -- 44
2020-09-14 17:00:00 28.8 15 Sur 28 Sur 0 -- -- 41
2020-09-14 16:00:00 29 18 Sur 29 Sur 0 -- -- 40
2020-09-14 15:00:00 30.4 14 Sur 26 Sur 0 -- -- 38
2020-09-14 14:00:00 30.2 12 Sur 22 Sur 0 -- -- 38
2020-09-14 13:00:00 30 10 Sur 17 Sudeste 0 -- -- 41
2020-09-14 12:00:00 28.7 5 Sur 11 Sur 0 -- -- 45
2020-09-14 11:00:00 26 6 Sudoeste 10 Sur 0 -- -- 58
2020-09-14 10:00:00 23.5 3 Sur 5 Sur 0 -- -- 66
2020-09-14 09:00:00 20.2 3 Sur 14 Nordeste 0 -- -- 72
2020-09-14 08:00:00 17.7 2 Noroeste 12 Nordeste 0 -- -- 80
2020-09-14 07:00:00 17 2 Nordeste 13 Norte 0 -- -- 81
2020-09-14 06:00:00 18.5 6 Norte 13 Nordeste 0 -- -- 75
2020-09-14 05:00:00 18 4 Norte 13 Nordeste 0 -- -- 77
2020-09-14 04:00:00 18.3 4 Nordeste 15 Norte 0 -- -- 75
2020-09-14 03:00:00 18.1 10 Nordeste 15 Norte 0 -- -- 73
2020-09-14 02:00:00 18.1 3 Norte 14 Nordeste 0 -- -- 72
2020-09-14 01:00:00 18.2 6 Norte 10 Nordeste 0 -- -- 72
2020-09-14 00:00:00 18.3 5 Nordeste 11 Nordeste 0 -- -- 72
2020-09-13 23:00:00 18.6 3 Norte 7 Norte 0 -- -- 72
2020-09-13 22:00:00 19.7 0 Calma 5 Nordeste 0 -- -- 73
2020-09-13 21:00:00 21.4 0 Calma 6 Oeste 0 -- -- 70
2020-09-13 20:00:00 24.4 6 Sudoeste 13 Sudoeste 0 -- -- 60
2020-09-13 19:00:00 28.4 11 Sudoeste 17 Sudoeste 0 -- -- 46
2020-09-13 18:00:00 31.5 8 Sur 18 Sur 0 -- -- 35
2020-09-13 17:00:00 32 13 Sur 22 Sudeste 0 -- -- 33
2020-09-13 16:00:00 32.1 11 Sur 19 Sur 0 -- -- 32
2020-09-13 15:00:00 32.1 11 Sur 20 Sur 0 -- -- 34
2020-09-13 14:00:00 31.5 11 Sur 22 Sur 0 -- -- 33
2020-09-13 13:00:00 31.8 7 Nordeste 17 Nordeste 0 -- -- 32
2020-09-13 12:00:00 31 3 Noroeste 18 Nordeste 0 -- -- 34
2020-09-13 11:00:00 29.7 11 Nordeste 19 Este 0 -- -- 36
2020-09-13 10:00:00 28.3 10 Nordeste 19 Nordeste 0 -- -- 37
2020-09-13 09:00:00 24.4 7 Nordeste 9 Nordeste 0 -- -- 50
2020-09-13 08:00:00 19.3 3 Nordeste 8 Norte 0 -- -- 64
2020-09-13 07:00:00 20 2 Nordeste 12 Norte 0 -- -- 57
2020-09-13 06:00:00 22.1 0 Calma 24 Nordeste 0 -- -- 48
2020-09-13 05:00:00 22.8 10 Nordeste 15 Norte 0 -- -- 45
2020-09-13 04:00:00 21 3 Noroeste 11 Nordeste 0 -- -- 48
2020-09-13 03:00:00 25.7 8 Nordeste 33 Norte 0 -- -- 35
2020-09-13 02:00:00 26.9 18 Norte 34 Norte 0 -- -- 31
2020-09-13 01:00:00 19.7 2 Sudoeste 13 Norte 0 -- -- 62
2020-09-13 00:00:00 19.1 5 Nordeste 12 Noroeste 0 -- -- 66
2020-09-12 23:00:00 20.3 2 Norte 9 Nordeste 0 -- -- 60
2020-09-12 22:00:00 21.9 4 Nordeste 10 Nordeste 0 -- -- 58
2020-09-12 21:00:00 23.4 0 Calma 8 Norte 0 -- -- 56
2020-09-12 20:00:00 27.2 3 Sudoeste 13 Nordeste 0 -- -- 46
2020-09-12 19:00:00 30.2 8 Nordeste 16 Nordeste 0 -- -- 35
2020-09-12 18:00:00 31.5 10 Nordeste 25 Norte 0 -- -- 34
2020-09-12 17:00:00 32.2 13 Norte 27 Nordeste 0 -- -- 32
2020-09-12 16:00:00 32.5 9 Norte 23 Este 0 -- -- 31
2020-09-12 15:00:00 32.1 10 Nordeste 24 Norte 0 -- -- 34
2020-09-12 14:00:00 31.8 10 Norte 27 Nordeste 0 -- -- 32
2020-09-12 13:00:00 31.3 14 Norte 26 Nordeste 0 -- -- 34
2020-09-12 12:00:00 30.3 8 Nordeste 24 Nordeste 0 -- -- 34
2020-09-12 11:00:00 29.6 11 Nordeste 18 Nordeste 0 -- -- 38
2020-09-12 10:00:00 28.7 0 Calma -- -- 0 -- -- 40
2020-09-12 09:00:00 25.1 0 Calma 10 Norte 0 -- -- 55
2020-09-12 08:00:00 20 4 Nordeste 10 Noroeste 0 -- -- 70
2020-09-12 07:00:00 20.7 0 Calma 9 Sudeste 0 -- -- 66
2020-09-12 06:00:00 21.4 4 Este 7 Oeste 0 -- -- 63
2020-09-12 05:00:00 20.2 0 Calma 12 Norte 0 -- -- 77
2020-09-12 04:00:00 19.5 3 Nordeste 13 Norte 0 -- -- 79
2020-09-12 03:00:00 19.1 4 Norte 10 Norte 0 -- -- 80
2020-09-12 02:00:00 19.7 3 Norte 10 Norte 0 -- -- 78
2020-09-12 01:00:00 20.3 4 Nordeste 11 Norte 0 -- -- 76
2020-09-12 00:00:00 21.1 0 Calma 10 Nordeste 0 -- -- 74
2020-09-11 23:00:00 21.3 6 Nordeste 12 Nordeste 0 -- -- 71
2020-09-11 22:00:00 21.9 8 Este 11 Sudeste 0 -- -- 70
2020-09-11 21:00:00 24.7 7 Sur 13 Norte 0 -- -- 59
2020-09-11 20:00:00 27.8 8 Norte 23 Norte 0 -- -- 43
2020-09-11 19:00:00 29.4 5 Norte 21 Nordeste 0 -- -- 41
2020-09-11 18:00:00 30.2 8 Nordeste 26 Nordeste 0 -- -- 40
2020-09-11 17:00:00 30 15 Nordeste 29 Nordeste 0 -- -- 41
2020-09-11 16:00:00 30 18 Nordeste 39 Este 0 -- -- 41
2020-09-11 15:00:00 30.4 15 Nordeste 36 Norte 0 -- -- 40
2020-09-11 14:00:00 29.9 11 Norte 23 Noroeste 0 -- -- 42
2020-09-11 13:00:00 27.9 9 Norte 32 Norte 0 -- -- 45
2020-09-11 12:00:00 28.8 5 Norte 33 Norte 0 -- -- 43
2020-09-11 11:00:00 26.8 17 Norte 38 Norte 0 -- -- 49
2020-09-11 10:00:00 26.8 15 Norte 36 Norte 0 -- -- 47
2020-09-11 09:00:00 26 13 Norte 31 Noroeste 0 -- -- 49
2020-09-11 08:00:00 24.4 12 Norte 31 Norte 0 -- -- 52
2020-09-11 07:00:00 24.4 17 Norte 31 Norte 0 -- -- 53
2020-09-11 06:00:00 24.5 14 Norte 35 Norte 0 -- -- 51
2020-09-11 05:00:00 25 18 Noroeste 42 Norte 0 -- -- 49
2020-09-11 04:00:00 25.3 24 Noroeste 43 Noroeste 0 -- -- 48
2020-09-11 03:00:00 24.8 18 Noroeste 33 Noroeste 0 -- -- 51
2020-09-11 02:00:00 20.2 5 Sudeste 12 Sudoeste 0 -- -- 82
2020-09-11 01:00:00 21 3 Noroeste 15 Sudoeste 0 -- -- 79
2020-09-11 00:00:00 24.6 8 Este 20 Norte 0 -- -- 58
2020-09-10 23:00:00 24.7 12 Noroeste 31 Noroeste 0 -- -- 54
2020-09-10 22:00:00 24.6 10 Norte 22 Norte 0 -- -- 57
2020-09-10 21:00:00 24.6 13 Noroeste 30 Norte 0 -- -- 57
2020-09-10 20:00:00 24.6 12 Norte 31 Norte 0 -- -- 55
2020-09-10 19:00:00 25.2 16 Norte 28 Norte 0 -- -- 55
2020-09-10 18:00:00 25.6 13 Norte 25 Norte 0 -- -- 53
2020-09-10 17:00:00 25.4 7 Nordeste 23 Norte 0 -- -- 56
2020-09-10 16:00:00 26.2 10 Norte 26 Norte 0 -- -- 53
2020-09-10 15:00:00 25.2 7 Norte 20 Norte 0 -- -- 56
2020-09-10 14:00:00 25.7 10 Norte 29 Norte 0 -- -- 57
2020-09-10 13:00:00 26.1 11 Nordeste 25 Nordeste 0 -- -- 55
2020-09-10 12:00:00 25.4 7 Norte 38 Norte 0 -- -- 54
2020-09-10 11:00:00 26.3 11 Norte 30 Norte 0 -- -- 53
2020-09-10 10:00:00 25 9 Nordeste 30 Norte 0 -- -- 54
2020-09-10 09:00:00 22.5 7 Sur 13 Sudoeste 0 -- -- 65
2020-09-10 08:00:00 20.2 6 Este 18 Noroeste 0 -- -- 73
2020-09-10 07:00:00 21.1 8 Nordeste 29 Nordeste 0 -- -- 69
2020-09-10 06:00:00 20.7 10 Nordeste 20 Norte 0 -- -- 71
2020-09-10 05:00:00 19.1 7 Sudeste 18 Norte 0 -- -- 79
2020-09-10 04:00:00 17.3 3 Norte 12 Norte 0 -- -- 91
2020-09-10 03:00:00 16.9 2 Nordeste 8 Norte 0 -- -- 93
2020-09-10 02:00:00 17 3 Nordeste 9 Noroeste 0 -- -- 93
2020-09-10 01:00:00 17.3 2 Sudeste 9 Noroeste 0 -- -- 90
2020-09-10 00:00:00 17.5 6 Norte 11 Norte 0 -- -- 93
2020-09-09 23:00:00 17.6 0 Calma 9 Norte 0 -- -- 90
2020-09-09 22:00:00 18.5 4 Norte 10 Nordeste 0 -- -- 87
2020-09-09 21:00:00 19.7 6 Nordeste 10 Nordeste 0 -- -- 81
2020-09-09 20:00:00 21.8 6 Nordeste 23 Nordeste 0 -- -- 73
2020-09-09 19:00:00 23.2 13 Nordeste 26 Nordeste 0 -- -- 66
2020-09-09 18:00:00 25.1 12 Nordeste 19 Nordeste 0 -- -- 59
2020-09-09 17:00:00 25.6 4 Norte 21 Nordeste 0 -- -- 57
2020-09-09 16:00:00 25.1 11 Nordeste 28 Nordeste 0.2 -- -- 61
2020-09-09 15:00:00 24.8 16 Nordeste 30 Nordeste 0 -- -- 62
2020-09-09 14:00:00 23.3 14 Nordeste 23 Nordeste 0 -- -- 68
2020-09-09 13:00:00 24.5 8 Sudoeste 14 Sudoeste 0 -- -- 62
2020-09-09 12:00:00 23.6 6 Sudoeste 13 Oeste 0 -- -- 72
2020-09-09 11:00:00 20.3 3 Nordeste 8 Norte 0.8 -- -- 91
2020-09-09 10:00:00 17.7 0 Calma 8 Sur 0.8 -- -- 94
2020-09-09 09:00:00 17.7 10 Nordeste 23 Norte 4 -- -- 93
2020-09-09 08:00:00 17.4 5 Nordeste 13 Norte 10.4 -- -- 94
2020-09-09 07:00:00 17.9 3 Oeste 13 Nordeste 3.6 -- -- 92
2020-09-09 06:00:00 18.4 3 Sudoeste 12 Sur 0.4 -- -- 91
2020-09-09 05:00:00 18.2 0 Calma 16 Noroeste 0 -- -- 91
2020-09-09 04:00:00 17.9 9 Norte 27 Nordeste 0.4 -- -- 91
2020-09-09 03:00:00 18 17 Norte 26 Nordeste 3.2 -- -- 90
2020-09-09 02:00:00 18.6 0 Calma 8 Nordeste 0.6 -- -- 90
2020-09-09 01:00:00 18.7 0 Calma 10 Sudoeste 0 -- -- 85
2020-09-09 00:00:00 18.9 3 Norte 13 Norte 0 -- -- 80
2020-09-08 23:00:00 19 9 Norte 14 Norte 0 -- -- 77
2020-09-08 22:00:00 18.8 10 Norte 17 Nordeste 0 -- -- 78
2020-09-08 21:00:00 18.3 7 Nordeste 13 Nordeste 0 -- -- 84
2020-09-08 20:00:00 18.4 8 Norte 10 Norte 0 -- -- 89
2020-09-08 19:00:00 18.5 3 Nordeste 30 Noroeste 0.2 -- -- 88
2020-09-08 18:00:00 17.8 12 Norte 26 Sudeste 2.4 -- -- 84
2020-09-08 17:00:00 24 17 Sudeste 32 Sudeste 0 -- -- 41
2020-09-08 16:00:00 25.3 17 Nordeste 35 Nordeste 0 -- -- 38
2020-09-08 15:00:00 26.4 15 Nordeste 32 Nordeste 0 -- -- 37
2020-09-08 14:00:00 26.3 14 Nordeste 40 Este 0 -- -- 38
2020-09-08 13:00:00 26 19 Nordeste 37 Nordeste 0 -- -- 36
2020-09-08 12:00:00 24.5 23 Nordeste 36 Nordeste 0 -- -- 37
2020-09-08 11:00:00 23.7 17 Nordeste 35 Norte 0 -- -- 38
2020-09-08 10:00:00 23.2 14 Nordeste 33 Norte 0 -- -- 38
2020-09-08 09:00:00 21.5 5 Este 22 Noroeste 0 -- -- 42
2020-09-08 08:00:00 20.9 9 Nordeste 29 Norte 0 -- -- 42
2020-09-08 07:00:00 20.7 12 Norte 37 Norte 0 -- -- 42
2020-09-08 06:00:00 20.8 13 Norte 42 Nordeste 0 -- -- 41
2020-09-08 05:00:00 21 15 Norte 39 Norte 0 -- -- 40
2020-09-08 04:00:00 20.9 14 Norte 34 Norte 0 -- -- 40
2020-09-08 03:00:00 21 13 Norte 46 Norte 0 -- -- 40
2020-09-08 02:00:00 21.3 17 Norte 66 Norte 0 -- -- 39
2020-09-08 01:00:00 21.5 37 Norte 64 Norte 0 -- -- 38
2020-09-08 00:00:00 21.6 26 Norte 65 Norte 0 -- -- 38
2020-09-07 23:00:00 21.5 33 Norte 64 Noroeste 0 -- -- 38
2020-09-07 22:00:00 21 28 Norte 60 Noroeste 0 -- -- 39
2020-09-07 21:00:00 21 27 Norte 57 Norte 0 -- -- 39
2020-09-07 20:00:00 21.3 22 Norte 60 Norte 0 -- -- 38
2020-09-07 19:00:00 22.2 24 Norte 62 Norte 0 -- -- 36
2020-09-07 18:00:00 22.6 27 Norte 57 Norte 0 -- -- 37
2020-09-07 17:00:00 22.6 23 Norte 59 Norte 0 -- -- 36
2020-09-07 16:00:00 24.1 32 Norte 54 Norte 0 -- -- 34
2020-09-07 15:00:00 24.1 22 Norte 60 Norte 0 -- -- 35
2020-09-07 14:00:00 23 31 Norte 59 Norte 0 -- -- 38
2020-09-07 13:00:00 23.1 33 Norte 62 Norte 0 -- -- 38
2020-09-07 12:00:00 22 33 Norte 69 Norte 0 -- -- 40
2020-09-07 11:00:00 21.2 33 Norte 69 Norte 0 -- -- 41
2020-09-07 10:00:00 20.2 37 Norte 77 Norte 0 -- -- 43
2020-09-07 09:00:00 19.1 40 Norte 82 Norte 0 -- -- 45
2020-09-07 08:00:00 19.2 38 Norte 82 Norte 0 -- -- 45
2020-09-07 07:00:00 19.2 34 Norte 66 Noroeste 0 -- -- 46
2020-09-07 06:00:00 19.3 23 Norte 64 Norte 0 -- -- 46
2020-09-07 05:00:00 19.4 27 Norte 54 Norte 0 -- -- 48
2020-09-07 04:00:00 19.4 10 Nordeste 53 Nordeste 0 -- -- 53
2020-09-07 03:00:00 19.6 16 Nordeste 47 Norte 0 -- -- 54
2020-09-07 02:00:00 20.1 29 Norte 64 Norte 0 -- -- 51
2020-09-07 01:00:00 20.4 26 Norte 53 Norte 0 -- -- 58
2020-09-07 00:00:00 20.5 23 Norte 59 Norte 0.2 -- -- 57
2020-09-06 23:00:00 18.4 11 Sur 48 Norte 0.4 -- -- 69
2020-09-06 22:00:00 18.2 24 Norte 56 Norte 0.8 -- -- 69
2020-09-06 21:00:00 20.2 23 Norte 52 Norte 0 -- -- 57
2020-09-06 20:00:00 18.1 17 Norte 48 Norte 3 -- -- 73
2020-09-06 19:00:00 17.3 13 Norte 41 Norte 8.4 -- -- 83
2020-09-06 18:00:00 23 20 Norte 40 Norte 0 -- -- 50
2020-09-06 17:00:00 24.6 9 Norte 34 Norte 0 -- -- 50
2020-09-06 16:00:00 25.5 15 Norte 32 Norte 0 -- -- 49
2020-09-06 15:00:00 25 13 Nordeste 25 Nordeste 0 -- -- 53
2020-09-06 14:00:00 24.7 13 Nordeste 22 Nordeste 0 -- -- 53
2020-09-06 13:00:00 24.7 12 Nordeste 27 Nordeste 0 -- -- 53
2020-09-06 12:00:00 24.7 11 Nordeste 21 Nordeste 0 -- -- 55
2020-09-06 11:00:00 25.4 10 Norte 21 Nordeste 0 -- -- 53
2020-09-06 10:00:00 24.4 9 Nordeste 18 Nordeste 0 -- -- 55
2020-09-06 09:00:00 22.1 3 Sudoeste 7 Nordeste 0 -- -- 70
2020-09-06 08:00:00 20.8 0 Calma 6 Este 0 -- -- 75
2020-09-06 07:00:00 19.9 4 Norte 8 Norte 0 -- -- 77
2020-09-06 06:00:00 19.9 4 Nordeste 9 Norte 0 -- -- 78
2020-09-06 05:00:00 19.9 0 Calma 7 Norte 0 -- -- 80
2020-09-06 04:00:00 19.6 5 Nordeste 8 Sudoeste 0 -- -- 84
2020-09-06 03:00:00 21.4 4 Sudoeste 19 Sudeste 0 -- -- 79
2020-09-06 02:00:00 24.3 10 Este 41 Norte 0 -- -- 56
2020-09-06 01:00:00 25.9 17 Norte 47 Nordeste 0 -- -- 51
2020-09-06 00:00:00 22.5 9 Sur 22 Sudeste 0 -- -- 67
2020-09-05 23:00:00 20.1 4 Sudoeste 14 Sur 0 -- -- 84
2020-09-05 22:00:00 20.1 4 Nordeste 8 Nordeste 0 -- -- 80
2020-09-05 21:00:00 22 2 Norte 8 Sudeste 0 -- -- 72
2020-09-05 20:00:00 24.2 6 Sudeste 13 Sur 0 -- -- 66
2020-09-05 19:00:00 26.3 8 Sur 16 Sur 0 -- -- 59
2020-09-05 18:00:00 27.3 11 Sur 20 Sur 0 -- -- 56
2020-09-05 17:00:00 28.6 11 Sur 22 Sudoeste 0 -- -- 54
2020-09-05 16:00:00 28.5 10 Sur 24 Sur 0 -- -- 53
2020-09-05 15:00:00 28.3 13 Sur 27 Sur 0 -- -- 54
2020-09-05 14:00:00 28.1 11 Sur 31 Sudeste 0 -- -- 54
2020-09-05 13:00:00 27.4 7 Sudoeste 16 Sur 0 -- -- 55
2020-09-05 12:00:00 25.4 4 Sur 12 Sudoeste 0 -- -- 62
2020-09-05 11:00:00 23.4 2 Sur 10 Sur 0 -- -- 68
2020-09-05 10:00:00 22.2 4 Sudoeste 6 Sudoeste 0 -- -- 72
2020-09-05 09:00:00 21.4 0 Calma 4 Este 0 -- -- 77
2020-09-05 08:00:00 20.4 0 Calma -- -- 0 -- -- 77
2020-09-05 07:00:00 20.2 0 Calma -- -- 0 -- -- 74
2020-09-05 06:00:00 20.6 0 Calma -- -- 0 -- -- 71
2020-09-05 05:00:00 20.6 0 Calma -- -- 0 -- -- 69
2020-09-05 04:00:00 20.8 0 Calma 0 Calma 0 -- -- 73
2020-09-05 03:00:00 20.7 0 Calma -- -- 0 -- -- 71
2020-09-05 02:00:00 20.4 0 Calma -- -- 0 -- -- 69
2020-09-05 01:00:00 19.8 0 Calma 12 Nordeste 0 -- -- 70
2020-09-05 00:00:00 19 8 Nordeste 15 Nordeste 0 -- -- 68
2020-09-04 23:00:00 18.4 4 Nordeste 12 Nordeste 0 -- -- 70
2020-09-04 22:00:00 18.6 3 Nordeste 7 Norte 0 -- -- 72
2020-09-04 21:00:00 20.5 5 Norte 8 Sur 0 -- -- 65
2020-09-04 20:00:00 23 6 Sur 13 Sur 0 -- -- 59
2020-09-04 19:00:00 24.6 9 Sur 22 Sur 0 -- -- 55
2020-09-04 18:00:00 26.9 14 Sur 23 Sur 0 -- -- 43
2020-09-04 17:00:00 28.6 13 Sur 23 Sur 0 -- -- 38
2020-09-04 16:00:00 28.9 14 Sudeste 24 Sudeste 0 -- -- 42
2020-09-04 15:00:00 29.8 13 Sur 26 Sudoeste 0 -- -- 37
2020-09-04 14:00:00 29.5 12 Sur 22 Sur 0 -- -- 35
2020-09-04 13:00:00 28.9 10 Sudoeste 25 Oeste 0 -- -- 40
2020-09-04 12:00:00 27.7 10 Sudoeste 19 Sudoeste 0 -- -- 41
2020-09-04 11:00:00 26.1 5 Sudoeste 13 Sur 0 -- -- 50
2020-09-04 10:00:00 23.9 4 Sudoeste 7 Sudoeste 0 -- -- 51
2020-09-04 09:00:00 20.2 0 Calma 6 Nordeste 0 -- -- 57
2020-09-04 08:00:00 16 3 Nordeste 9 Nordeste 0 -- -- 65
2020-09-04 07:00:00 16.4 8 Norte 13 Nordeste 0 -- -- 59
2020-09-04 06:00:00 17.2 4 Norte 14 Nordeste 0 -- -- 55
2020-09-04 05:00:00 17.4 10 Nordeste 17 Nordeste 0 -- -- 50
2020-09-04 04:00:00 17.4 3 Sudoeste 15 Nordeste 0 -- -- 55
2020-09-04 03:00:00 16.8 5 Norte 15 Norte 0 -- -- 63
2020-09-04 02:00:00 17.9 10 Norte 17 Nordeste 0 -- -- 58
2020-09-04 01:00:00 17.6 7 Nordeste 14 Norte 0 -- -- 62
2020-09-04 00:00:00 17.4 5 Nordeste 12 Nordeste 0 -- -- 69
2020-09-03 23:00:00 17.8 6 Norte 12 Nordeste 0 -- -- 67
2020-09-03 22:00:00 18.6 6 Nordeste 9 Norte 0 -- -- 60
2020-09-03 21:00:00 20.3 8 Norte 10 Norte 0 -- -- 51
2020-09-03 20:00:00 23 4 Sur 14 Sur 0 -- -- 44
2020-09-03 19:00:00 25.2 9 Sur 18 Sur 0 -- -- 44
2020-09-03 18:00:00 26.5 13 Sur 27 Sur 0 -- -- 42
2020-09-03 17:00:00 27.8 16 Sur 31 Sur 0 -- -- 37
2020-09-03 16:00:00 29.2 12 Sur 25 Sudeste 0 -- -- 32
2020-09-03 15:00:00 29.6 10 Sur 22 Oeste 0 -- -- 31
2020-09-03 14:00:00 28.9 8 Nordeste 22 Oeste 0 -- -- 29
2020-09-03 13:00:00 28.1 13 Noroeste 24 Norte 0 -- -- 30
2020-09-03 12:00:00 26.7 13 Nordeste 24 Nordeste 0 -- -- 32
2020-09-03 11:00:00 25.4 6 Sur 13 Sudoeste 0 -- -- 38
2020-09-03 10:00:00 22.9 6 Sur 9 Sur 0 -- -- 43
2020-09-03 09:00:00 17.2 0 Calma 5 Este 0 -- -- 66
2020-09-03 08:00:00 14.3 2 Nordeste 6 Nordeste 0 -- -- 66
2020-09-03 07:00:00 13.9 3 Nordeste 8 Norte 0 -- -- 65
2020-09-03 06:00:00 15 3 Norte 8 Norte 0 -- -- 61
2020-09-03 05:00:00 17.6 3 Este 14 Sur 0 -- -- 52
2020-09-03 04:00:00 21.2 4 Norte 31 Noroeste 0 -- -- 40
2020-09-03 03:00:00 20.9 16 Noroeste 27 Noroeste 0 -- -- 43
2020-09-03 02:00:00 21.5 15 Noroeste 27 Norte 0 -- -- 41
2020-09-03 01:00:00 21.4 13 Norte 37 Norte 0 -- -- 42
2020-09-03 00:00:00 22.3 20 Norte 40 Norte 0 -- -- 39
2020-09-02 23:00:00 18.8 7 Norte 16 Norte 0 -- -- 49
2020-09-02 22:00:00 18.5 7 Nordeste 11 Norte 0 -- -- 63
2020-09-02 21:00:00 19.9 0 Calma 10 Norte 0 -- -- 60
2020-09-02 20:00:00 23.2 6 Sudeste 18 Sudeste 0 -- -- 51
2020-09-02 19:00:00 24.7 12 Sur 23 Sur 0 -- -- 44
2020-09-02 18:00:00 25.7 15 Sur 22 Sur 0 -- -- 41
2020-09-02 17:00:00 27.5 9 Norte 28 Noroeste 0 -- -- 34
2020-09-02 16:00:00 28.2 15 Nordeste 33 Nordeste 0 -- -- 33
2020-09-02 15:00:00 28.1 15 Norte 35 Norte 0 -- -- 34
2020-09-02 14:00:00 27.5 14 Norte 34 Norte 0 -- -- 34
2020-09-02 13:00:00 26.6 19 Norte 37 Nordeste 0 -- -- 36
2020-09-02 12:00:00 25.8 17 Norte 39 Norte 0 -- -- 37
2020-09-02 11:00:00 24 18 Norte 44 Norte 0 -- -- 40
2020-09-02 10:00:00 22.7 21 Norte 45 Noroeste 0 -- -- 42
2020-09-02 09:00:00 22.2 21 Norte 42 Norte 0 -- -- 42
2020-09-02 08:00:00 21.4 15 Norte 49 Norte 0 -- -- 44
2020-09-02 07:00:00 21.2 23 Norte 42 Nordeste 0 -- -- 44
2020-09-02 06:00:00 21.6 23 Norte 45 Norte 0 -- -- 43
2020-09-02 05:00:00 21.7 20 Norte 48 Norte 0 -- -- 42
2020-09-02 04:00:00 21.8 22 Norte 51 Norte 0 -- -- 42
2020-09-02 03:00:00 21.7 19 Norte 50 Noroeste 0 -- -- 42
2020-09-02 02:00:00 21.9 22 Norte 51 Nordeste 0 -- -- 43
2020-09-02 01:00:00 22.1 19 Norte 37 Norte 0 -- -- 43
2020-09-02 00:00:00 18.3 4 Sur 25 Noroeste 0 -- -- 70
2020-09-01 23:00:00 17.9 3 Nordeste 9 Norte 0 -- -- 78
2020-09-01 22:00:00 19.1 2 Nordeste 9 Nordeste 0 -- -- 73
2020-09-01 21:00:00 20.3 0 Calma 5 Sudoeste 0 -- -- 69
2020-09-01 20:00:00 21.6 3 Sudoeste 11 Sudoeste 0 -- -- 64
2020-09-01 19:00:00 22.4 4 Sur 15 Sudoeste 0 -- -- 60
2020-09-01 18:00:00 23.6 11 Sur 23 Sur 0 -- -- 56
2020-09-01 17:00:00 24.3 13 Sur 24 Sur 0 -- -- 51
2020-09-01 16:00:00 25.3 13 Sur 26 Sur 0 -- -- 47
2020-09-01 15:00:00 25.8 15 Sudeste 27 Sur 0 -- -- 45
2020-09-01 14:00:00 25.3 10 Sudeste 25 Sur 0 -- -- 46
2020-09-01 13:00:00 26 6 Sudeste 18 Este 0 -- -- 42
2020-09-01 12:00:00 24.6 7 Sur 17 Sudoeste 0 -- -- 44
2020-09-01 11:00:00 23.3 5 Sur 12 Sudoeste 0 -- -- 47
2020-09-01 10:00:00 21.5 3 Sur 10 Sur 0 -- -- 51
2020-09-01 09:00:00 18.8 0 Calma 4 Norte 0 -- -- 66
2020-09-01 08:00:00 17 0 Calma 11 Nordeste 0 -- -- 69
2020-09-01 07:00:00 16.3 7 Nordeste 18 Nordeste 0 -- -- 67
2020-09-01 06:00:00 16.9 11 Nordeste 17 Nordeste 0 -- -- 64
2020-09-01 05:00:00 15.6 3 Norte 10 Nordeste 0 -- -- 70
2020-09-01 04:00:00 15.5 0 Calma 2 Nordeste 0 -- -- 70
2020-09-01 03:00:00 16.8 3 Nordeste 8 Norte 0 -- -- 63
2020-09-01 02:00:00 18.1 4 Este 17 Noroeste 0 -- -- 58
2020-09-01 01:00:00 20.5 9 Oeste 31 Noroeste 0 -- -- 49
2020-09-01 00:00:00 20.4 6 Oeste 33 Norte 0 -- -- 50
2020-08-31 23:00:00 21.4 11 Noroeste 33 Norte 0 -- -- 46
2020-08-31 22:00:00 21.7 11 Norte 26 Nordeste 0 -- -- 44
2020-08-31 21:00:00 21.7 12 Nordeste 29 Nordeste 0 -- -- 46
2020-08-31 20:00:00 22.6 14 Norte 24 Norte 0 -- -- 44
2020-08-31 19:00:00 24.4 14 Norte 24 Norte 0 -- -- 40
2020-08-31 18:00:00 26.2 10 Norte 29 Noroeste 0 -- -- 37
2020-08-31 17:00:00 26.6 13 Norte 36 Norte 0 -- -- 33
2020-08-31 16:00:00 25.4 13 Nordeste 26 Noroeste 0 -- -- 35
2020-08-31 15:00:00 26.4 13 Norte 27 Noroeste 0 -- -- 33
2020-08-31 14:00:00 26.2 15 Noroeste 34 Norte 0 -- -- 32
2020-08-31 13:00:00 25 18 Norte 35 Noroeste 0 -- -- 34
2020-08-31 12:00:00 24 17 Norte 33 Noroeste 0 -- -- 36
2020-08-31 11:00:00 22.3 17 Noroeste 36 Norte 0 -- -- 41
2020-08-31 10:00:00 21 9 Nordeste 22 Este 0 -- -- 44
2020-08-31 09:00:00 19.8 7 Norte 48 Norte 0 -- -- 46
2020-08-31 08:00:00 18.3 25 Norte 58 Norte 0 -- -- 51
2020-08-31 07:00:00 18 22 Noroeste 41 Norte 0 -- -- 52
2020-08-31 06:00:00 17.6 15 Noroeste 40 Norte 0 -- -- 55
2020-08-31 05:00:00 18 15 Norte 55 Norte 0 -- -- 54
2020-08-31 04:00:00 18.8 33 Norte 63 Norte 0 -- -- 51
2020-08-31 03:00:00 18.9 22 Norte 47 Noroeste 0 -- -- 50
2020-08-31 02:00:00 19.2 23 Norte 45 Noroeste 0 -- -- 50
2020-08-31 01:00:00 19.4 18 Norte 52 Noroeste 0 -- -- 48
2020-08-31 00:00:00 19.6 23 Norte 58 Norte 0 -- -- 49
2020-08-30 23:00:00 19.5 22 Norte 44 Norte 0 -- -- 52
2020-08-30 22:00:00 19.9 16 Norte 45 Noroeste 0 -- -- 49
2020-08-30 21:00:00 20.3 17 Norte 42 Norte 0 -- -- 51
2020-08-30 20:00:00 21 13 Norte 32 Norte 0 -- -- 48
2020-08-30 19:00:00 21.7 14 Norte 36 Noroeste 0 -- -- 46
2020-08-30 18:00:00 22.6 13 Norte 33 Noroeste 0 -- -- 43
2020-08-30 17:00:00 24.1 18 Norte 37 Norte 0 -- -- 38
2020-08-30 16:00:00 24.4 15 Norte 31 Norte 0 -- -- 37
2020-08-30 15:00:00 23.7 17 Norte 35 Nordeste 0 -- -- 39
2020-08-30 14:00:00 24.9 17 Norte 41 Norte 0 -- -- 36
2020-08-30 13:00:00 24 17 Norte 41 Noroeste 0 -- -- 39
2020-08-30 12:00:00 23 17 Norte 40 Norte 0 -- -- 41
2020-08-30 11:00:00 21.9 20 Norte 52 Noroeste 0 -- -- 42
2020-08-30 10:00:00 20.5 27 Norte 55 Norte 0 -- -- 47
2020-08-30 09:00:00 20.2 25 Norte 50 Norte 0 -- -- 43
2020-08-30 08:00:00 17.2 10 Oeste 32 Noroeste 0 -- -- 54
2020-08-30 07:00:00 16.9 13 Noroeste 55 Norte 0 -- -- 58
2020-08-30 06:00:00 17.6 23 Norte 44 Norte 0.2 -- -- 57
2020-08-30 05:00:00 17 15 Noroeste 30 Noroeste 0 -- -- 61
2020-08-30 04:00:00 16 12 Norte 30 Norte 0 -- -- 67
2020-08-30 03:00:00 15 12 Norte 37 Norte 1.8 -- -- 75
2020-08-30 02:00:00 15.8 27 Noroeste 54 Norte 0 -- -- 72
2020-08-30 01:00:00 18.3 35 Noroeste 66 Norte 0 -- -- 55
2020-08-30 00:00:00 18.7 34 Norte 69 Norte 0 -- -- 53
2020-08-29 23:00:00 18.9 31 Norte 66 Norte 0 -- -- 54
2020-08-29 22:00:00 19 20 Norte 45 Nordeste 0 -- -- 57
2020-08-29 21:00:00 20.6 8 Sudeste 24 Este 0 -- -- 52
2020-08-29 20:00:00 20.9 9 Norte 17 Nordeste 0 -- -- 54
2020-08-29 19:00:00 21.4 13 Nordeste 33 Noroeste 0 -- -- 52
2020-08-29 18:00:00 22.2 16 Norte 36 Norte 0 -- -- 46
2020-08-29 17:00:00 23.7 16 Norte 35 Norte 0 -- -- 46
2020-08-29 16:00:00 24 11 Norte 21 Nordeste 0 -- -- 51
2020-08-29 15:00:00 21.9 7 Sur 12 Sur 0 -- -- 55
2020-08-29 14:00:00 20.5 10 Sur 23 Sur 0 -- -- 62
2020-08-29 13:00:00 18.3 5 Sur 15 Sur 0.2 -- -- 76
2020-08-29 12:00:00 17.7 7 Sur 17 Sudoeste 0 -- -- 82
2020-08-29 11:00:00 17.2 9 Sur 17 Sur 0 -- -- 86
2020-08-29 10:00:00 15.7 6 Sur 15 Sur 0.2 -- -- 93
2020-08-29 09:00:00 14.8 4 Oeste 15 Sur 1.2 -- -- 94
2020-08-29 08:00:00 14.5 8 Sur 15 Este 1.6 -- -- 93
2020-08-29 07:00:00 14.7 7 Sur 15 Sur 3 -- -- 90
2020-08-29 06:00:00 15.6 6 Sur 25 Este 1 -- -- 83
2020-08-29 05:00:00 16 10 Este 25 Este 0.2 -- -- 80
2020-08-29 04:00:00 16.4 3 Sudeste 18 Este 1.6 -- -- 85
2020-08-29 03:00:00 16.4 8 Nordeste 14 Este 0.6 -- -- 83
2020-08-29 02:00:00 16.9 9 Sur 24 Nordeste 0 -- -- 83
2020-08-29 01:00:00 16.9 19 Nordeste 37 Este 0.6 -- -- 81
2020-08-29 00:00:00 17.3 13 Nordeste 22 Nordeste 1 -- -- 82
2020-08-28 23:00:00 19.8 7 Sudeste 34 Nordeste 0 -- -- 65
2020-08-28 22:00:00 20 9 Nordeste 32 Nordeste 0 -- -- 65
2020-08-28 21:00:00 20.8 5 Sur 17 Nordeste 0 -- -- 65
2020-08-28 20:00:00 20.2 7 Nordeste 40 Norte 0 -- -- 69
2020-08-28 19:00:00 19.9 11 Nordeste 21 Nordeste 0 -- -- 76
2020-08-28 18:00:00 23.5 3 Nordeste 36 Noroeste 0.2 -- -- 66
2020-08-28 17:00:00 24.6 14 Nordeste 27 Nordeste 0 -- -- 60
2020-08-28 16:00:00 26.5 17 Nordeste 24 Nordeste 0 -- -- 59
2020-08-28 15:00:00 27.7 13 Nordeste 28 Este 0 -- -- 56
2020-08-28 14:00:00 27.5 18 Nordeste 29 Nordeste 0 -- -- 55
2020-08-28 13:00:00 30.2 11 Sur 25 Sur 0 -- -- 50
2020-08-28 12:00:00 29.8 12 Sur 21 Sudeste 0 -- -- 50
2020-08-28 11:00:00 29.2 11 Sur 19 Sudoeste 0 -- -- 54
2020-08-28 10:00:00 27.8 7 Sur 13 Sur 0 -- -- 60
2020-08-28 09:00:00 25.3 2 Sudoeste 11 Nordeste 0 -- -- 70
2020-08-28 08:00:00 22.6 9 Nordeste 20 Nordeste 0 -- -- 77
2020-08-28 07:00:00 21 5 Nordeste 13 Nordeste 0 -- -- 85
2020-08-28 06:00:00 21.6 2 Nordeste 14 Nordeste 0 -- -- 81
2020-08-28 05:00:00 22.3 8 Nordeste 21 Nordeste 0 -- -- 79
2020-08-28 04:00:00 22 8 Nordeste 14 Nordeste 0 -- -- 80
2020-08-28 03:00:00 22.4 7 Norte 10 Norte 0 -- -- 87
2020-08-28 02:00:00 23.5 2 Nordeste 11 Norte 0 -- -- 82
2020-08-28 01:00:00 24.4 4 Norte 8 Nordeste 0 -- -- 79
2020-08-28 00:00:00 25.5 0 Calma 8 Nordeste 0 -- -- 75